KBKEKLWS

Guest
Details From KBKE - Baker City Muni
To KLWS - Lewiston Nez Perce Co
Flight Number -
Tags Generated
Created
Modified
Stats Distance 99 nm / 183 km
Max Altitude 0 ft / 0 m
Waypoints 2
Social Downloads 1
Likes 0
Share VATSIM

Download

Looking for another format? Having issues loading an existing format? Contact us
Advertisement - Login to hide

Notes

Generated

Route

KBKE KLWS

ID Type Via Altitude Latitude Longitude Leg Dist Tot Dist Heading (true) Name
O KBKE APT - 0 ft / 0 m 44.83698˚ -117.81481˚ - 0 nm - BAKER CITY MUNI
O KLWS APT - 0 ft / 0 m 46.38179˚ -117.02354˚ 98 nm 98 nm 19° / 20° -

Altitude Profile

Advertisement - Login to hide

KBKE

Details ICAO KBKE
Name BAKER CITY MUNI
Region United States
Timezone America/Los_Angeles (UTC-8.0)
Stats Elevation 3,373 ft / 1,028 m (AMSL)
Location 44.837325° -117.809116°
Runways 3
Magnetic Variation 14.068° E

METAR

KBKE 130453Z AUTO 14003KT 9SM BKN010 M05/M08 A3047 RMK AO2 SLP360 T10501078

Decode

TAF

KBKE 122321Z 1300/1324 VRB06KT P6SM OVC012 FM131100 VRB03KT 6SM BR OVC008

Decode

Departure Runways

ID Width Length Bearing (true) Bearing (mag) Surface Threshold Offset Overrun Length
08 140 ft / 43 m 3,989 ft / 1,216 m 96.83° 82.76° Asphalt 140 ft / 43 m 0 ft / 0 m
13 100 ft / 30 m 5,092 ft / 1,552 m 141.62° 127.55° Asphalt 0 ft / 0 m 0 ft / 0 m
17 75 ft / 23 m 4,363 ft / 1,330 m 181.19° 167.12° Asphalt 0 ft / 0 m 0 ft / 0 m
26 140 ft / 43 m 3,989 ft / 1,216 m 276.84° 262.77° Asphalt 190 ft / 58 m 0 ft / 0 m
31 100 ft / 30 m 5,092 ft / 1,552 m 321.62° 307.55° Asphalt 0 ft / 0 m 0 ft / 0 m
35 75 ft / 23 m 4,363 ft / 1,330 m 1.19° 347.12° Asphalt 395 ft / 120 m 0 ft / 0 m

KLWS

Details ICAO KLWS (LWS)
Name Lewiston Nez Perce Co
Region United States
Timezone America/Los_Angeles (UTC-8.0)
Stats Elevation 1,438 ft / 438 m (AMSL)
Location 46.374815° -117.015482°
Runways 2
Magnetic Variation 14.170° E

METAR

KLWS 130456Z 17004KT 10SM FEW075 M01/M03 A3049 RMK AO2 SLP344 T10111033

Decode

TAF

TAF KLWS 122338Z 1300/1324 VRB03KT P6SM SCT018 BKN150 FM130600 VRB04KT 6SM BR SCT002 OVC015 FM132100 28003KT P6SM SCT016

Decode

Destination Runways

ID Width Length Bearing (true) Bearing (mag) Surface Threshold Offset Overrun Length
08 150 ft / 46 m 6,494 ft / 1,980 m 98.81° 84.64° Asphalt 0 ft / 0 m 0 ft / 0 m
11 100 ft / 30 m 4,995 ft / 1,522 m 131.71° 117.54° Asphalt 0 ft / 0 m 0 ft / 0 m
26 150 ft / 46 m 6,494 ft / 1,980 m 278.83° 264.66° Asphalt 0 ft / 0 m 0 ft / 0 m
29 100 ft / 30 m 4,995 ft / 1,522 m 311.72° 297.55° Asphalt 0 ft / 0 m 0 ft / 0 m

Approach Navaids

Runway Type Ident Frequency Range Bearing (true) Bearing (mag) Slope Elevation
26 Localiser ILWS 109.70 MHz 18 nm / 33 km 278.81° 264.64° - 1,438 ft / 438 m (AMSL)
26 Glidescope ILWS 109.70 MHz 10 nm / 19 km 278.82° 264.65° 3.00° 1,434 ft / 437 m (AMSL)

Popular Alternatives